Cincinnati, Ohio
Traffic Map
Current Weather Conditions
Cincinnati, Ohio
Clear
Clear
58°
Feels Like: 58°
Wind Chill: 58° Ceiling: Unl
Heat Index: 58° Visibility: 10mi
Dew Point: 35° Wind: 0mph
Humidity: 42% Direction: ° ()
Pressure: 30.3in Gusts: 0mph
Raw Report DataKLUK 180053Z 00000KT 10SM CLR 14/02 A3030 RMK AO2 SLP260 T01440017
Traffic Incident Summary
Active as of:
Severity:
Category:
InformationThere was an issue retrieving the traffic information for this location. Please try a different location or try again shortly.
Advertisements
At Last! Intellicast now available for iPhone and Android